createdAt,value
2023-03-07T00:00:31.895Z,37.20
2023-03-07T00:03:48.146Z,34.80
2023-03-07T00:06:50.032Z,42.00
2023-03-07T00:09:52.569Z,36.60
2023-03-07T00:12:54.455Z,41.20
2023-03-07T00:16:03.453Z,39.90
2023-03-07T00:19:07.461Z,41.00
2023-03-07T00:22:11.807Z,40.40
2023-03-07T00:25:14.965Z,41.20
2023-03-07T00:31:19.828Z,36.40
2023-03-07T00:34:21.847Z,39.20
2023-03-07T00:37:23.975Z,37.70
2023-03-07T00:40:25.869Z,40.10
2023-03-07T00:43:28.227Z,39.10
2023-03-07T00:49:31.945Z,39.80
2023-03-07T00:52:33.844Z,30.60
2023-03-07T00:55:35.838Z,40.20
2023-03-07T00:58:37.800Z,37.30
2023-03-07T01:01:39.713Z,38.00
2023-03-07T01:04:41.607Z,36.20
2023-03-07T01:07:44.616Z,37.00
2023-03-07T01:10:50.256Z,32.50
2023-03-07T01:13:55.649Z,37.00
2023-03-07T01:16:58.108Z,34.10
2023-03-07T01:20:00.351Z,36.10
2023-03-07T01:23:03.117Z,35.80
2023-03-07T01:26:05.066Z,31.70
2023-03-07T01:29:07.807Z,28.90
2023-03-07T01:32:10.928Z,32.30
2023-03-07T01:35:12.903Z,30.40
2023-03-07T01:38:14.835Z,30.20
2023-03-07T01:41:16.804Z,28.90
2023-03-07T01:44:27.256Z,30.60
2023-03-07T01:47:29.545Z,33.10
2023-03-07T01:50:31.468Z,33.20
2023-03-07T01:53:33.766Z,33.20
2023-03-07T01:56:37.872Z,33.50
2023-03-07T01:59:46.627Z,33.40
2023-03-07T02:03:06.648Z,32.30
2023-03-07T02:06:12.075Z,33.40
2023-03-07T02:09:18.333Z,31.70
2023-03-07T02:12:22.992Z,31.60
2023-03-07T02:15:25.259Z,33.70
2023-03-07T02:18:33.111Z,33.10
2023-03-07T02:22:11.827Z,36.20
2023-03-07T02:25:34.226Z,34.00
2023-03-07T02:28:36.569Z,35.60
2023-03-07T02:31:38.575Z,35.10
2023-03-07T02:34:40.465Z,34.40
2023-03-07T02:37:58.333Z,35.70
2023-03-07T02:41:00.584Z,37.20
2023-03-07T02:44:02.642Z,37.60
2023-03-07T02:50:11.136Z,34.60
2023-03-07T02:53:15.294Z,34.90
2023-03-07T02:56:17.344Z,37.90
2023-03-07T02:59:19.386Z,35.70
2023-03-07T03:02:21.293Z,34.10
2023-03-07T03:05:23.475Z,34.70
2023-03-07T03:08:26.950Z,34.90
2023-03-07T03:11:28.767Z,32.60
2023-03-07T03:14:31.814Z,34.90
2023-03-07T03:17:33.718Z,34.60
2023-03-07T03:20:38.859Z,32.10
2023-03-07T03:23:40.797Z,30.90
2023-03-07T03:26:43.705Z,36.10
2023-03-07T03:29:45.760Z,32.10
2023-03-07T03:32:47.820Z,30.50
2023-03-07T03:35:50.522Z,34.20
2023-03-07T03:38:57.481Z,31.30
2023-03-07T03:41:59.557Z,31.80
2023-03-07T03:45:01.584Z,28.90
2023-03-07T03:48:03.517Z,32.40
2023-03-07T03:51:16.404Z,31.20
2023-03-07T03:54:18.303Z,33.80
2023-03-07T03:57:20.164Z,30.90
2023-03-07T04:00:23.096Z,27.80
2023-03-07T04:03:24.964Z,27.40
2023-03-07T04:06:32.479Z,30.30
2023-03-07T04:09:34.393Z,30.80
2023-03-07T04:12:36.437Z,26.70
2023-03-07T04:15:39.051Z,26.80
2023-03-07T04:18:40.980Z,33.50
2023-03-07T04:21:43.889Z,30.40
2023-03-07T04:24:46.826Z,27.60
2023-03-07T04:27:48.749Z,28.80
2023-03-07T04:30:55.558Z,27.80
2023-03-07T04:33:58.343Z,27.10
2023-03-07T04:40:03.256Z,22.40
2023-03-07T04:43:05.338Z,29.50
2023-03-07T04:52:12.020Z,27.10
2023-03-07T04:55:14.453Z,29.10
2023-03-07T04:58:16.680Z,29.70
2023-03-07T05:07:23.797Z,25.90
2023-03-07T05:10:26.191Z,30.10
2023-03-07T05:16:30.493Z,25.00
2023-03-07T05:19:32.376Z,27.40
2023-03-07T05:22:34.354Z,26.90
2023-03-07T05:25:36.444Z,29.40
2023-03-07T05:28:38.405Z,36.20
2023-03-07T05:31:40.203Z,38.70
2023-03-07T05:34:43.927Z,39.20
2023-03-07T05:37:46.247Z,41.00
2023-03-07T05:40:48.219Z,41.40
2023-03-07T05:43:50.495Z,35.50
2023-03-07T05:46:52.484Z,36.50
2023-03-07T05:49:54.462Z,35.00
2023-03-07T05:52:56.447Z,28.40
2023-03-07T05:56:01.097Z,28.40
2023-03-07T05:59:06.988Z,28.50
2023-03-07T06:02:09.155Z,32.30
2023-03-07T06:05:11.155Z,37.20
2023-03-07T06:08:12.949Z,36.50
2023-03-07T06:11:14.907Z,40.70
2023-03-07T06:14:16.860Z,34.70
2023-03-07T06:17:18.802Z,34.80
2023-03-07T06:20:20.733Z,33.40
2023-03-07T06:23:22.981Z,38.20
2023-03-07T06:26:24.969Z,34.10
2023-03-07T06:29:28.067Z,37.20
2023-03-07T06:32:30.846Z,37.20
2023-03-07T06:35:34.161Z,34.10
2023-03-07T06:38:36.274Z,34.30
2023-03-07T06:41:38.211Z,43.10
2023-03-07T06:44:40.939Z,35.80
2023-03-07T06:47:43.761Z,36.20
2023-03-07T06:50:46.698Z,33.20
2023-03-07T06:53:48.561Z,36.10
2023-03-07T06:56:51.008Z,31.20
2023-03-07T06:59:55.061Z,33.70
2023-03-07T07:02:57.433Z,32.70
2023-03-07T07:05:59.487Z,36.60
2023-03-07T07:09:01.577Z,29.30
2023-03-07T07:12:07.554Z,30.90
2023-03-07T07:15:10.041Z,31.40
2023-03-07T07:21:15.420Z,27.20
2023-03-07T07:24:17.718Z,29.60
2023-03-07T07:27:19.569Z,29.00
2023-03-07T07:30:22.219Z,29.90
2023-03-07T07:33:24.213Z,34.60
2023-03-07T07:36:26.324Z,29.90
2023-03-07T07:39:28.354Z,29.40
2023-03-07T07:42:32.283Z,32.60
2023-03-07T07:45:50.438Z,29.20
2023-03-07T07:48:55.147Z,25.20
2023-03-07T07:51:57.551Z,27.90
2023-03-07T07:58:01.830Z,23.10
2023-03-07T08:01:19.687Z,28.30
2023-03-07T08:04:21.802Z,26.50
2023-03-07T08:07:23.694Z,25.80
2023-03-07T08:10:25.644Z,27.00
2023-03-07T08:13:29.922Z,27.30
2023-03-07T08:16:31.891Z,25.90
2023-03-07T08:19:33.892Z,27.00
2023-03-07T08:22:39.574Z,33.60
2023-03-07T08:25:41.592Z,27.20
2023-03-07T08:28:44.128Z,27.80
2023-03-07T08:31:48.165Z,28.80
2023-03-07T08:34:50.079Z,26.40
2023-03-07T08:37:57.595Z,26.50
2023-03-07T08:41:01.364Z,27.00
2023-03-07T08:44:03.460Z,24.50
2023-03-07T08:47:05.586Z,28.10
2023-03-07T08:50:08.605Z,28.80
2023-03-07T08:53:10.512Z,24.50
2023-03-07T08:56:16.033Z,21.90
2023-03-07T08:59:17.912Z,23.20
2023-03-07T09:02:19.973Z,25.60
2023-03-07T09:05:22.167Z,26.00
2023-03-07T09:08:24.462Z,27.80
2023-03-07T09:11:26.568Z,28.20
2023-03-07T09:14:28.804Z,23.30
2023-03-07T09:17:30.695Z,22.70
2023-03-07T09:20:32.661Z,23.10
2023-03-07T09:23:34.657Z,23.50
2023-03-07T09:26:36.918Z,21.90
2023-03-07T09:32:40.906Z,19.00
2023-03-07T09:35:43.140Z,16.80
2023-03-07T09:38:47.388Z,18.30
2023-03-07T09:42:00.384Z,15.80
2023-03-07T09:45:29.036Z,19.40
2023-03-07T09:48:47.391Z,21.40
2023-03-07T09:51:53.167Z,18.40
2023-03-07T09:55:04.759Z,17.70
2023-03-07T09:58:16.071Z,15.90
2023-03-07T10:01:23.638Z,19.60
2023-03-07T10:04:51.374Z,17.50
2023-03-07T10:07:54.660Z,15.40
2023-03-07T10:11:11.181Z,15.10
2023-03-07T10:14:37.204Z,17.50
2023-03-07T10:18:09.725Z,17.20
2023-03-07T10:21:30.985Z,16.90
2023-03-07T10:24:47.404Z,16.50
2023-03-07T10:27:54.972Z,16.10
2023-03-07T10:31:02.151Z,15.30
2023-03-07T10:34:37.701Z,14.70
2023-03-07T10:37:54.706Z,15.30
2023-03-07T10:41:06.642Z,15.00
2023-03-07T10:44:18.549Z,13.90
2023-03-07T10:47:23.800Z,15.80
2023-03-07T10:50:28.425Z,14.80
2023-03-07T10:53:34.853Z,14.80
2023-03-07T10:56:37.286Z,13.40
2023-03-07T10:59:43.053Z,14.20
2023-03-07T11:02:46.258Z,23.40
2023-03-07T11:05:49.237Z,19.60
2023-03-07T11:12:09.686Z,15.50
2023-03-07T11:15:20.926Z,16.60
2023-03-07T11:18:29.365Z,15.80
2023-03-07T11:21:35.321Z,17.10
2023-03-07T11:24:38.520Z,17.20
2023-03-07T11:27:53.791Z,14.70
2023-03-07T11:31:29.142Z,16.30
2023-03-07T11:34:37.236Z,16.10
2023-03-07T11:37:42.976Z,21.40
2023-03-07T11:40:55.868Z,14.60
2023-03-07T11:44:00.460Z,16.20
2023-03-07T11:47:08.512Z,12.90
2023-03-07T11:50:16.598Z,11.90
2023-03-07T11:53:37.056Z,14.70
2023-03-07T11:56:46.075Z,16.40
2023-03-07T11:59:58.947Z,13.60
2023-03-07T12:03:03.837Z,19.00
2023-03-07T12:06:17.951Z,17.80
2023-03-07T12:09:33.278Z,15.90
2023-03-07T12:12:56.017Z,15.10
2023-03-07T12:16:16.686Z,14.40
2023-03-07T12:19:42.979Z,13.90
2023-03-07T12:23:14.997Z,14.90
2023-03-07T12:26:19.826Z,14.60
2023-03-07T12:29:34.004Z,14.20
2023-03-07T12:32:37.693Z,16.20
2023-03-07T12:35:49.694Z,16.90
2023-03-07T12:39:02.688Z,14.90
2023-03-07T12:42:17.747Z,15.90
2023-03-07T12:45:24.419Z,14.90
2023-03-07T12:48:42.825Z,15.70
2023-03-07T12:51:48.778Z,15.50
2023-03-07T12:55:41.764Z,17.60
2023-03-07T13:02:31.829Z,14.70
2023-03-07T13:05:36.586Z,15.70
2023-03-07T13:08:40.196Z,15.00
2023-03-07T13:12:21.898Z,17.30
2023-03-07T13:15:25.260Z,19.00
2023-03-07T13:18:31.718Z,16.90
2023-03-07T13:21:33.939Z,15.70
2023-03-07T13:24:40.744Z,15.00
2023-03-07T13:27:51.491Z,15.20
2023-03-07T13:31:14.884Z,14.10
2023-03-07T13:34:45.910Z,12.30
2023-03-07T13:37:52.947Z,12.10
2023-03-07T13:41:00.015Z,13.30
2023-03-07T13:44:02.797Z,13.30
2023-03-07T13:47:42.930Z,15.80
2023-03-07T13:50:44.861Z,17.20
2023-03-07T13:53:54.284Z,16.80
2023-03-07T13:56:56.673Z,15.10
2023-03-07T14:00:00.246Z,15.50
2023-03-07T14:03:02.428Z,14.60
2023-03-07T14:06:28.144Z,15.50
2023-03-07T14:09:43.053Z,18.90
2023-03-07T14:13:14.935Z,19.30
2023-03-07T14:16:25.691Z,20.70
2023-03-07T14:19:54.741Z,19.80
2023-03-07T14:23:27.272Z,18.50
2023-03-07T14:26:32.808Z,17.50
2023-03-07T14:29:34.720Z,19.50
2023-03-07T14:32:40.227Z,17.40
2023-03-07T14:35:44.406Z,16.80
2023-03-07T14:38:50.114Z,17.70
2023-03-07T14:42:00.994Z,18.20
2023-03-07T14:45:41.063Z,23.20
2023-03-07T14:49:06.444Z,18.90
2023-03-07T14:52:21.508Z,21.10
2023-03-07T14:55:38.247Z,23.30
2023-03-07T14:58:53.297Z,20.70
2023-03-07T15:01:56.953Z,22.10
2023-03-07T15:04:58.945Z,21.50
2023-03-07T15:08:01.140Z,20.50
2023-03-07T15:11:43.807Z,18.00
2023-03-07T15:14:51.796Z,19.60
2023-03-07T15:17:57.304Z,20.90
2023-03-07T15:21:01.087Z,18.20
2023-03-07T15:24:03.273Z,16.70
2023-03-07T15:27:09.799Z,20.20
2023-03-07T15:30:24.487Z,19.60
2023-03-07T15:33:30.100Z,19.50
2023-03-07T15:36:32.723Z,17.40
2023-03-07T15:39:35.051Z,22.80
2023-03-07T15:42:55.057Z,20.30
2023-03-07T15:46:14.894Z,20.20
2023-03-07T15:49:38.556Z,20.90
2023-03-07T15:52:41.104Z,21.40
2023-03-07T15:55:53.076Z,20.70
2023-03-07T15:58:59.674Z,24.00
2023-03-07T16:02:33.332Z,23.60
2023-03-07T16:05:37.119Z,19.50
2023-03-07T16:08:38.975Z,23.20
2023-03-07T16:11:41.616Z,20.00
2023-03-07T16:14:46.126Z,21.70
2023-03-07T16:17:52.556Z,21.80
2023-03-07T16:20:55.042Z,22.40
2023-03-07T16:23:56.908Z,19.40
2023-03-07T16:26:59.004Z,22.70
2023-03-07T16:30:01.002Z,23.40
2023-03-07T16:33:02.915Z,22.50
2023-03-07T16:36:05.275Z,26.20
2023-03-07T16:39:07.141Z,26.60
2023-03-07T16:42:19.440Z,23.90
2023-03-07T16:45:30.301Z,27.30
2023-03-07T16:48:32.811Z,23.90
2023-03-07T16:51:34.879Z,25.00
2023-03-07T16:54:36.702Z,28.20
2023-03-07T16:57:39.611Z,27.10
2023-03-07T17:00:41.977Z,29.20
2023-03-07T17:03:43.937Z,25.40
2023-03-07T17:06:48.745Z,26.60
2023-03-07T17:09:54.429Z,26.80
2023-03-07T17:12:57.464Z,27.50
2023-03-07T17:15:59.393Z,26.30
2023-03-07T17:19:01.272Z,38.70
2023-03-07T17:22:03.151Z,27.50
2023-03-07T17:25:05.548Z,29.40
2023-03-07T17:28:12.812Z,28.50
2023-03-07T17:31:14.668Z,30.40
2023-03-07T17:34:29.596Z,27.50
2023-03-07T17:37:31.521Z,29.80
2023-03-07T17:40:33.493Z,32.30
2023-03-07T17:43:35.547Z,32.10
2023-03-07T17:46:37.445Z,36.40
2023-03-07T17:49:39.413Z,28.60
2023-03-07T17:52:41.292Z,34.50
2023-03-07T17:55:43.765Z,35.90
2023-03-07T17:58:45.698Z,38.20
2023-03-07T18:01:47.574Z,44.50
2023-03-07T18:04:50.934Z,41.70
2023-03-07T18:07:53.192Z,36.20
2023-03-07T18:14:03.117Z,34.90
2023-03-07T18:17:04.979Z,33.10
2023-03-07T18:20:10.452Z,37.10
2023-03-07T18:23:12.453Z,38.40
2023-03-07T18:26:15.344Z,38.60
2023-03-07T18:29:17.497Z,40.90
2023-03-07T18:32:19.412Z,38.40
2023-03-07T18:35:22.776Z,33.70
2023-03-07T18:38:25.360Z,32.60
2023-03-07T18:41:27.672Z,40.40
2023-03-07T18:47:31.849Z,25.30
2023-03-07T18:50:33.826Z,26.80
2023-03-07T18:53:36.890Z,28.40
2023-03-07T18:56:38.828Z,26.10
2023-03-07T18:59:40.795Z,29.40
2023-03-07T19:02:43.101Z,27.10
2023-03-07T19:05:48.110Z,28.30
2023-03-07T19:08:50.590Z,29.90
2023-03-07T19:11:52.785Z,27.90
2023-03-07T19:14:55.171Z,29.80
2023-03-07T19:17:57.075Z,28.10
2023-03-07T19:20:59.019Z,26.40
2023-03-07T19:24:03.837Z,25.10
2023-03-07T19:27:05.941Z,25.20
2023-03-07T19:30:10.613Z,26.50
2023-03-07T19:33:12.432Z,43.90
2023-03-07T19:36:27.307Z,24.70
2023-03-07T19:39:29.388Z,28.90
2023-03-07T19:42:31.221Z,25.80
2023-03-07T19:45:33.548Z,27.70
2023-03-07T19:51:37.185Z,21.70
2023-03-07T19:54:39.470Z,25.20
2023-03-07T19:57:41.360Z,26.00
2023-03-07T20:00:45.889Z,27.00
2023-03-07T20:03:48.550Z,24.60
2023-03-07T20:06:50.515Z,26.10
2023-03-07T20:09:52.373Z,27.20
2023-03-07T20:12:54.237Z,26.80
2023-03-07T20:15:56.076Z,24.60
2023-03-07T20:19:00.673Z,26.20
2023-03-07T20:22:04.247Z,26.70
2023-03-07T20:25:06.627Z,26.40
2023-03-07T20:28:09.280Z,23.00
2023-03-07T20:31:12.468Z,26.80
2023-03-07T20:34:14.333Z,24.80
2023-03-07T20:37:16.180Z,25.80
2023-03-07T20:40:18.373Z,24.90
2023-03-07T20:43:20.233Z,23.40
2023-03-07T20:46:22.402Z,21.60
2023-03-07T20:49:24.214Z,23.20
2023-03-07T20:52:26.120Z,24.20
2023-03-07T20:55:29.008Z,20.20
2023-03-07T20:58:31.880Z,25.30
2023-03-07T21:01:34.478Z,23.50
2023-03-07T21:04:36.682Z,25.20
2023-03-07T21:07:38.554Z,24.00
2023-03-07T21:10:40.397Z,28.10
2023-03-07T21:13:44.693Z,23.90
2023-03-07T21:16:47.182Z,24.10
2023-03-07T21:19:49.013Z,24.20
2023-03-07T21:22:50.886Z,23.00
2023-03-07T21:25:55.083Z,24.60
2023-03-07T21:28:57.993Z,26.00
2023-03-07T21:32:01.330Z,23.10
2023-03-07T21:35:03.605Z,23.90
2023-03-07T21:38:05.841Z,29.30
2023-03-07T21:44:09.957Z,24.60
2023-03-07T21:47:12.459Z,25.70
2023-03-07T21:50:14.373Z,25.90
2023-03-07T21:53:17.376Z,28.50
2023-03-07T21:56:19.244Z,28.30
2023-03-07T21:59:21.532Z,26.00
2023-03-07T22:05:25.351Z,27.30
2023-03-07T22:08:27.141Z,24.50
2023-03-07T22:11:28.984Z,25.70
2023-03-07T22:14:30.932Z,27.20
2023-03-07T22:17:33.215Z,22.70
2023-03-07T22:20:37.468Z,22.50
2023-03-07T22:23:39.520Z,25.80
2023-03-07T22:26:41.384Z,24.60
2023-03-07T22:29:43.329Z,23.80
2023-03-07T22:32:45.182Z,23.60
2023-03-07T22:35:55.897Z,23.30
2023-03-07T22:38:57.763Z,22.40
2023-03-07T22:41:59.851Z,24.30
2023-03-07T22:45:01.690Z,26.90
2023-03-07T22:48:03.653Z,26.50
2023-03-07T22:51:12.388Z,25.20
2023-03-07T22:54:14.281Z,23.80
2023-03-07T22:57:16.136Z,24.60
2023-03-07T23:00:18.449Z,24.10
2023-03-07T23:06:23.972Z,26.90
2023-03-07T23:09:25.836Z,21.40
2023-03-07T23:12:27.722Z,26.20
2023-03-07T23:15:29.694Z,23.60
2023-03-07T23:18:31.616Z,23.60
2023-03-07T23:21:34.030Z,22.20
2023-03-07T23:27:37.530Z,17.60
2023-03-07T23:30:40.227Z,20.50
2023-03-07T23:33:42.123Z,23.30
2023-03-07T23:36:44.923Z,23.00
2023-03-07T23:39:46.749Z,25.70
2023-03-07T23:42:48.575Z,24.60
2023-03-07T23:45:50.395Z,23.10
2023-03-07T23:48:53.388Z,25.80
2023-03-07T23:51:55.506Z,22.50
2023-03-07T23:54:57.279Z,23.10
2023-03-07T23:57:59.131Z,23.20
